Thunderstorms From: 22-05-2018 15:00 Until: 23-05-2018 15:00 warning for: Thunderstorms Level: Yellow info button

Although rather usual in this region, locally or potentially dangerous phenomena are expected. (such as local winds, summer thunderstorms, rising streams or high waves) Be aware and pay attention to the latest weather updates, especially if you carry out activities exposed to weather or close to a stream or shoreline. 


Meteo18 Weather Cam more information Meteo18 Weather Cam


warning for Thunderstorms more information blitzortung!


Rain radar more information rain snow radar


Visit our other weather sites:

Template documentation
and downloads

And another site



Weather Underground History page Text

Daily Summary for December 8, 2017 Units:  English    Metric   Both
« Previous Day
Next Day »
Daily Weekly Monthly Yearly Custom
  High: Low: Average:
Temperature: TemperatureC °F 0.8 °F 4 °F
Dew Point: DewpointC °F -0.5 °F 2.2 °F
Humidity: Humidity % 71 % 88 %
Wind Speed: WindSpeedKMH mph 0.0 mph 9.6 mph
Wind Gust: WindSpeedGustKMH mph - -
Wind:- - WNW
Pressure: PressurehPa in 1016.8 in -
Precipitation: 1.3 in    
Historical Graphs
 
 
Tabular Data for December 8, 2017
Time Temperature Dew Point Pressure Wind Wind Speed Wind Gust Humidity Rainfall Rate (Hourly)
TemperatureC °F DewpointC °F PressurehPa in Calm     Humidity % HourlyPrecipMM in
00:02 6.9 °F 6.5 °F 1017.2 in WSW 9.7 mph 19.3 mph 97 % 0.8 in
00:12 7.1 °F 6.7 °F 1017.2 in WSW 14.5 mph 20.9 mph 97 % 1.0 in
00:17 7.2 °F 6.8 °F 1016.8 in WSW 17.7 mph 24.1 mph 97 % 1.0 in
00:42 7.5 °F 7.1 °F 1016.8 in WSW 6.4 mph 25.7 mph 97 % 1.0 in
00:52 7.5 °F 7.1 °F 1016.8 in West 9.7 mph 20.9 mph 97 % 0.8 in
00:57 7.5 °F 7.1 °F 1016.8 in West 8.0 mph 17.7 mph 97 % 0.8 in
01:02 7.5 °F 7.1 °F 1017.2 in West 6.4 mph 20.9 mph 97 % 0.5 in
01:07 7.6 °F 7.2 °F 1016.8 in West 9.7 mph 20.9 mph 97 % 0.3 in
01:17 7.6 °F 7.2 °F 1016.8 in West 11.3 mph 19.3 mph 97 % 0.3 in
01:22 7.6 °F 7.0 °F 1016.8 in West 3.2 mph 19.3 mph 96 % 0.0 in
01:27 7.7 °F 7.1 °F 1016.8 in NNW 14.5 mph 19.3 mph 96 % 0.0 in
01:47 7.4 °F 6.7 °F 1017.2 in NNW 4.8 mph 11.3 mph 95 % 0.0 in
01:57 7.2 °F 6.1 °F 1017.5 in WNW 6.4 mph 16.1 mph 93 % 0.0 in
02:02 7.1 °F 6.0 °F 1017.5 in NNW 9.7 mph 19.3 mph 93 % 0.0 in
02:07 7.0 °F 5.9 °F 1017.5 in North 8.0 mph 19.3 mph 93 % 0.0 in
02:12 6.9 °F 5.7 °F 1017.5 in NNW 4.8 mph 17.7 mph 92 % 0.0 in
02:22 6.9 °F 5.7 °F 1017.5 in West 1.6 mph 11.3 mph 92 % 0.0 in
02:27 6.8 °F 5.6 °F 1017.5 in WNW 3.2 mph 11.3 mph 92 % 0.0 in
02:42 6.8 °F 5.6 °F 1017.8 in Calm   6.4 mph 92 % 0.0 in
02:47 6.7 °F 5.5 °F 1017.8 in Calm   8.0 mph 92 % 0.0 in
02:57 6.7 °F 5.3 °F 1017.8 in Calm   6.4 mph 91 % 0.0 in
03:02 6.7 °F 5.3 °F 1017.8 in WNW 3.2 mph 6.4 mph 91 % 0.0 in
03:22 6.4 °F 5.0 °F 1018.2 in WNW 4.8 mph 11.3 mph 91 % 0.0 in
04:02 5.5 °F 4.3 °F 1018.5 in WNW 4.8 mph 12.9 mph 92 % 0.0 in
04:07 5.5 °F 4.3 °F 1018.5 in WNW 8.0 mph 12.9 mph 92 % 0.0 in
04:17 5.4 °F 4.2 °F 1018.8 in WNW 3.2 mph 14.5 mph 92 % 0.0 in
04:27 5.3 °F 4.1 °F 1018.8 in West 3.2 mph 11.3 mph 92 % 0.0 in
04:37 5.3 °F 4.1 °F 1018.8 in WNW 12.9 mph 12.9 mph 92 % 0.0 in
04:42 5.3 °F 4.1 °F 1018.8 in West 4.8 mph 14.5 mph 92 % 0.0 in
04:52 5.1 °F 3.9 °F 1018.8 in WNW 3.2 mph 14.5 mph 92 % 0.0 in
04:57 5.1 °F 3.9 °F 1018.8 in WSW 3.2 mph 9.7 mph 92 % 0.0 in
05:02 5.0 °F 3.7 °F 1018.8 in WNW 4.8 mph 9.7 mph 91 % 0.0 in
05:12 4.8 °F 3.5 °F 1018.8 in WNW 3.2 mph 8.0 mph 91 % 0.0 in
05:17 4.7 °F 3.5 °F 1018.8 in West 4.8 mph 8.0 mph 92 % 0.0 in
05:32 4.3 °F 3.1 °F 1019.2 in West 3.2 mph 8.0 mph 92 % 0.0 in
05:42 4.1 °F 3.1 °F 1019.2 in West 4.8 mph 8.0 mph 93 % 0.0 in
05:47 4.1 °F 3.1 °F 1019.2 in WNW 6.4 mph 9.7 mph 93 % 0.0 in
05:52 4.1 °F 3.1 °F 1019.2 in West 3.2 mph 14.5 mph 93 % 0.0 in
05:57 4.1 °F 3.1 °F 1019.2 in West 3.2 mph 14.5 mph 93 % 0.0 in
06:02 4.1 °F 3.1 °F 1019.2 in West 1.6 mph 14.5 mph 93 % 0.0 in
06:12 3.9 °F 2.9 °F 1019.2 in West 9.7 mph 9.7 mph 93 % 0.0 in
06:17 3.9 °F 2.9 °F 1019.2 in WNW 1.6 mph 9.7 mph 93 % 0.0 in
06:27 3.8 °F 2.8 °F 1019.2 in West 3.2 mph 12.9 mph 93 % 0.0 in
06:32 3.8 °F 2.8 °F 1019.2 in West 3.2 mph 9.7 mph 93 % 0.0 in
06:42 3.8 °F 2.9 °F 1019.2 in West 6.4 mph 9.7 mph 94 % 0.0 in
06:47 3.8 °F 2.9 °F 1019.2 in West 3.2 mph 9.7 mph 94 % 0.0 in
06:57 3.9 °F 3.0 °F 1019.2 in West 4.8 mph 11.3 mph 94 % 0.0 in
07:02 3.9 °F 3.0 °F 1019.2 in West 6.4 mph 14.5 mph 94 % 0.0 in
07:12 4.1 °F 3.1 °F 1019.2 in West 4.8 mph 12.9 mph 93 % 0.0 in
07:17 4.1 °F 3.1 °F 1019.2 in West 9.7 mph 12.9 mph 93 % 0.0 in
07:27 4.1 °F 3.1 °F 1019.5 in West 9.7 mph 14.5 mph 93 % 0.0 in
07:37 4.3 °F 3.1 °F 1019.2 in West 9.7 mph 20.9 mph 92 % 0.0 in
07:42 4.3 °F 3.0 °F 1019.2 in West 4.8 mph 20.9 mph 91 % 0.0 in
07:47 4.3 °F 3.0 °F 1019.2 in West 6.4 mph 20.9 mph 91 % 0.0 in
08:07 4.2 °F 2.7 °F 1019.2 in West 8.0 mph 19.3 mph 90 % 0.0 in
08:12 4.1 °F 2.8 °F 1019.2 in WSW 16.1 mph 19.3 mph 91 % 0.0 in
08:22 4.1 °F 2.9 °F 1019.5 in West 11.3 mph 17.7 mph 92 % 0.0 in
08:27 4.2 °F 3.0 °F 1019.5 in West 16.1 mph 20.9 mph 92 % 0.0 in
08:37 4.4 °F 3.2 °F 1019.5 in West 12.9 mph 22.5 mph 92 % 0.0 in
08:47 4.4 °F 3.1 °F 1019.5 in West 12.9 mph 22.5 mph 91 % 0.0 in
08:52 4.3 °F 3.1 °F 1019.5 in WSW 6.4 mph 19.3 mph 92 % 0.0 in
08:57 4.2 °F 3.0 °F 1019.5 in West 8.0 mph 19.3 mph 92 % 0.0 in
09:02 4.2 °F 3.0 °F 1019.2 in WSW 6.4 mph 19.3 mph 92 % 0.0 in
09:12 3.9 °F 2.7 °F 1019.9 in West 4.8 mph 17.7 mph 92 % 0.0 in
09:17 3.9 °F 2.9 °F 1019.9 in WSW 4.8 mph 14.5 mph 93 % 0.0 in
09:32 4.3 °F 3.0 °F 1019.9 in WNW 11.3 mph 16.1 mph 91 % 0.0 in
09:42 4.7 °F 3.4 °F 1020.2 in WNW 9.7 mph 22.5 mph 91 % 0.0 in
09:47 4.9 °F 3.4 °F 1020.2 in WNW 17.7 mph 27.4 mph 90 % 0.0 in
09:52 5.0 °F 3.5 °F 1020.2 in WNW 6.4 mph 32.2 mph 90 % 0.0 in
09:57 4.9 °F 3.4 °F 1020.2 in West 11.3 mph 32.2 mph 90 % 0.0 in
10:02 4.8 °F 3.3 °F 1020.5 in WNW 19.3 mph 32.2 mph 90 % 0.0 in
10:12 4.6 °F 3.3 °F 1020.2 in West 9.7 mph 29.0 mph 91 % 0.0 in
10:17 4.5 °F 3.0 °F 1020.2 in West 8.0 mph 25.7 mph 90 % 0.3 in
10:27 4.5 °F 3.0 °F 1020.2 in West 9.7 mph 22.5 mph 90 % 0.3 in
10:32 4.5 °F 2.8 °F 1020.5 in West 12.9 mph 22.5 mph 89 % 0.3 in
10:42 4.7 °F 2.9 °F 1020.5 in West 9.7 mph 17.7 mph 88 % 0.3 in
10:52 4.8 °F 3.1 °F 1020.5 in West 3.2 mph 17.7 mph 89 % 0.3 in
10:57 5.0 °F 3.3 °F 1020.9 in West 11.3 mph 16.1 mph 89 % 0.3 in
11:02 5.2 °F 3.5 °F 1020.9 in WNW 6.4 mph 16.1 mph 89 % 0.3 in
11:12 5.3 °F 3.5 °F 1020.9 in West 6.4 mph 19.3 mph 88 % 0.0 in
11:27 5.4 °F 3.4 °F 1021.2 in West 9.7 mph 29.0 mph 87 % 0.0 in
11:32 5.4 °F 3.2 °F 1021.2 in West 14.5 mph 29.0 mph 86 % 0.0 in
11:42 5.6 °F 3.1 °F 1020.9 in WNW 8.0 mph 20.9 mph 84 % 0.0 in
11:47 5.7 °F 3.5 °F 1020.9 in West 14.5 mph 20.9 mph 86 % 0.0 in
11:57 5.7 °F 3.2 °F 1020.9 in WNW 6.4 mph 24.1 mph 84 % 0.0 in
12:02 5.7 °F 3.0 °F 1020.9 in SW 9.7 mph 24.1 mph 83 % 0.0 in
12:12 5.7 °F 3.0 °F 1020.9 in WSW 14.5 mph 27.4 mph 83 % 0.0 in
12:17 5.7 °F 3.0 °F 1020.9 in West 12.9 mph 27.4 mph 83 % 0.0 in
12:22 5.6 °F 2.8 °F 1020.9 in WSW 17.7 mph 27.4 mph 82 % 0.0 in
12:32 5.7 °F 2.5 °F 1020.5 in West 14.5 mph 27.4 mph 80 % 0.0 in
12:42 5.8 °F 2.6 °F 1020.5 in West 17.7 mph 29.0 mph 80 % 0.0 in
12:47 5.8 °F 2.8 °F 1020.5 in WSW 11.3 mph 29.0 mph 81 % 0.0 in
12:52 5.7 °F 2.5 °F 1020.5 in WNW 20.9 mph 29.0 mph 80 % 0.0 in
13:02 5.7 °F 2.7 °F 1020.5 in West 8.0 mph 29.0 mph 81 % 0.0 in
13:07 5.8 °F 2.6 °F 1020.5 in WNW 16.1 mph 29.0 mph 80 % 0.0 in
13:12 5.8 °F 2.4 °F 1020.5 in WNW 14.5 mph 29.0 mph 79 % 0.0 in
13:17 5.9 °F 2.2 °F 1020.5 in NW 20.9 mph 29.0 mph 77 % 0.0 in
13:22 5.8 °F 2.3 °F 1020.5 in West 19.3 mph 29.0 mph 78 % 0.0 in
13:27 5.9 °F 2.4 °F 1020.5 in West 14.5 mph 29.0 mph 78 % 0.0 in
13:37 6.0 °F 1.9 °F 1020.2 in West 16.1 mph 30.6 mph 75 % 0.0 in
13:42 6.1 °F 2.2 °F 1020.2 in West 17.7 mph 32.2 mph 76 % 0.0 in
13:52 5.8 °F 1.1 °F 1020.2 in West 17.7 mph 35.4 mph 72 % 0.0 in
13:57 5.7 °F 1.0 °F 1019.9 in West 11.3 mph 35.4 mph 72 % 0.0 in
14:02 5.6 °F 1.0 °F 1020.2 in NW 22.5 mph 35.4 mph 72 % 0.0 in
14:12 5.6 °F 1.1 °F 1020.2 in WSW 9.7 mph 29.0 mph 73 % 0.0 in
14:22 5.6 °F 0.8 °F 1020.2 in West 27.4 mph 30.6 mph 71 % 0.0 in
14:27 5.6 °F 1.0 °F 1020.2 in West 27.4 mph 30.6 mph 72 % 0.0 in
14:42 5.7 °F 1.0 °F 1019.9 in West 6.4 mph 30.6 mph 72 % 0.0 in
14:57 5.9 °F 1.2 °F 1019.9 in WSW 8.0 mph 27.4 mph 72 % 0.0 in
15:12 5.7 °F 0.9 °F 1019.9 in West 12.9 mph 25.7 mph 71 % 0.0 in
15:22 5.6 °F 1.1 °F 1019.9 in West 9.7 mph 24.1 mph 73 % 0.0 in
15:27 5.7 °F 1.0 °F 1019.9 in WNW 16.1 mph 25.7 mph 72 % 0.0 in
15:32 5.8 °F 0.9 °F 1019.9 in WNW 11.3 mph 25.7 mph 71 % 0.0 in
15:42 5.5 °F 0.7 °F 1019.5 in WNW 14.5 mph 33.8 mph 71 % 0.0 in
15:47 5.3 °F 0.9 °F 1019.9 in West 14.5 mph 33.8 mph 73 % 0.0 in
15:52 5.3 °F 0.7 °F 1019.9 in WNW 25.7 mph 33.8 mph 72 % 0.0 in
16:07 3.9 °F 0.4 °F 1019.9 in WNW 14.5 mph 53.1 mph 78 % 0.0 in
16:12 3.7 °F 0.2 °F 1019.9 in West 14.5 mph 53.1 mph 78 % 0.0 in
16:17 3.7 °F 0.4 °F 1019.9 in WNW 11.3 mph 40.2 mph 79 % 0.0 in
16:42 3.8 °F 0.8 °F 1019.9 in WNW 8.0 mph 11.3 mph 81 % 0.0 in
17:02 2.3 °F 0.2 °F 1020.5 in NW 16.1 mph 30.6 mph 86 % 0.0 in
17:07 1.4 °F -0.2 °F 1020.9 in WNW 12.9 mph 41.8 mph 89 % 0.0 in
17:17 1.1 °F 0.1 °F 1020.9 in NW 6.4 mph 41.8 mph 93 % 0.0 in
17:22 1.1 °F 0.1 °F 1020.9 in NNW 4.8 mph 17.7 mph 93 % 0.0 in
17:27 1.1 °F 0.1 °F 1020.9 in WNW 4.8 mph 17.7 mph 93 % 0.0 in
17:32 1.1 °F 0.1 °F 1020.9 in WNW 6.4 mph 17.7 mph 93 % 0.0 in
17:42 1.1 °F 0.1 °F 1020.9 in WNW 11.3 mph 19.3 mph 93 % 0.0 in
17:47 1.2 °F 0.2 °F 1020.9 in WNW 6.4 mph 19.3 mph 93 % 0.0 in
17:57 1.3 °F 0.1 °F 1020.9 in WNW 3.2 mph 17.7 mph 92 % 0.0 in
18:07 1.3 °F 0.1 °F 1020.9 in West 9.7 mph 16.1 mph 92 % 0.0 in
18:12 1.4 °F 0.1 °F 1020.9 in NW 6.4 mph 16.1 mph 91 % 0.0 in
18:17 1.5 °F 0.2 °F 1020.9 in West 9.7 mph 14.5 mph 91 % 0.0 in
18:22 1.6 °F 0.1 °F 1020.9 in West 8.0 mph 14.5 mph 90 % 0.0 in
18:27 1.6 °F 0.1 °F 1020.9 in West 11.3 mph 17.7 mph 90 % 0.0 in
18:32 1.6 °F 0.1 °F 1020.9 in WNW 3.2 mph 17.7 mph 90 % 0.0 in
18:42 1.6 °F 0.1 °F 1020.9 in West 4.8 mph 14.5 mph 90 % 0.0 in
18:57 1.6 °F 0.3 °F 1021.2 in WNW 14.5 mph 14.5 mph 91 % 0.0 in
19:02 1.6 °F 0.3 °F 1021.2 in WNW 16.1 mph 32.2 mph 91 % 0.0 in
19:12 1.6 °F 0.3 °F 1021.2 in WNW 14.5 mph 32.2 mph 91 % 0.3 in
19:17 1.6 °F 0.3 °F 1021.2 in West 11.3 mph 29.0 mph 91 % 0.5 in
19:27 1.6 °F 0.1 °F 1021.2 in West 6.4 mph 29.0 mph 90 % 0.5 in
19:32 1.6 °F 0.3 °F 1021.2 in WNW 8.0 mph 19.3 mph 91 % 0.5 in
19:47 1.3 °F 0.0 °F 1021.6 in WSW 8.0 mph 17.7 mph 91 % 0.5 in
19:57 1.3 °F 0.0 °F 1021.6 in West 14.5 mph 19.3 mph 91 % 0.5 in
20:07 1.3 °F 0.0 °F 1021.6 in WSW 12.9 mph 19.3 mph 91 % 0.5 in
20:12 1.3 °F 0.0 °F 1021.6 in WSW 8.0 mph 19.3 mph 91 % 0.3 in
20:22 1.3 °F -0.2 °F 1021.6 in WNW 11.3 mph 17.7 mph 90 % 0.0 in
20:27 1.4 °F -0.2 °F 1021.6 in WNW 9.7 mph 20.9 mph 89 % 0.0 in
20:32 1.4 °F -0.2 °F 1021.6 in NW 6.4 mph 22.5 mph 89 % 0.0 in
20:37 1.4 °F -0.2 °F 1021.6 in West 14.5 mph 22.5 mph 89 % 0.0 in
20:47 1.3 °F -0.3 °F 1021.6 in West 3.2 mph 19.3 mph 89 % 0.0 in
20:52 1.3 °F -0.2 °F 1021.6 in WNW 4.8 mph 14.5 mph 90 % 0.0 in
20:57 1.3 °F -0.2 °F 1021.6 in West 6.4 mph 14.5 mph 90 % 0.0 in
21:02 1.3 °F -0.2 °F 1021.6 in West 8.0 mph 14.5 mph 90 % 0.0 in
21:12 1.3 °F 0.0 °F 1021.9 in WNW 4.8 mph 24.1 mph 91 % 0.0 in
21:17 1.3 °F 0.0 °F 1021.9 in WNW 11.3 mph 24.1 mph 91 % 0.0 in
21:22 1.3 °F 0.0 °F 1021.9 in NNW 8.0 mph 24.1 mph 91 % 0.0 in
21:27 1.3 °F 0.0 °F 1021.9 in West 16.1 mph 24.1 mph 91 % 0.0 in
21:37 1.3 °F 0.0 °F 1021.9 in West 12.9 mph 24.1 mph 91 % 0.0 in
21:42 1.3 °F 0.0 °F 1021.9 in WNW 14.5 mph 24.1 mph 91 % 0.0 in
21:47 1.3 °F 0.0 °F 1021.9 in West 11.3 mph 20.9 mph 91 % 0.0 in
21:57 1.4 °F 0.1 °F 1021.9 in WNW 9.7 mph 20.9 mph 91 % 0.0 in
22:12 1.3 °F -0.2 °F 1021.6 in WNW 14.5 mph 27.4 mph 90 % 0.0 in
22:22 1.2 °F -0.3 °F 1021.6 in WNW 11.3 mph 27.4 mph 90 % 0.0 in
22:27 1.2 °F -0.3 °F 1021.6 in West 8.0 mph 22.5 mph 90 % 0.0 in
22:37 1.2 °F -0.3 °F 1021.6 in WNW 6.4 mph 19.3 mph 90 % 0.0 in
22:42 1.2 °F -0.3 °F 1021.9 in West 8.0 mph 20.9 mph 90 % 0.0 in
22:52 1.1 °F -0.4 °F 1021.6 in NW 4.8 mph 16.1 mph 90 % 0.0 in
22:57 1.1 °F -0.4 °F 1021.6 in WNW 16.1 mph 16.1 mph 90 % 0.0 in
23:02 1.1 °F -0.4 °F 1021.6 in NW 8.0 mph 22.5 mph 90 % 0.0 in
23:12 1.1 °F -0.4 °F 1021.6 in West 16.1 mph 22.5 mph 90 % 0.0 in
23:17 1.0 °F -0.5 °F 1021.6 in West 8.0 mph 22.5 mph 90 % 0.0 in
23:22 0.9 °F -0.4 °F 1021.6 in WNW 8.0 mph 20.9 mph 91 % 0.0 in
23:32 0.8 °F -0.5 °F 1021.9 in WNW 17.7 mph 17.7 mph 91 % 0.0 in
23:37 0.8 °F -0.5 °F 1021.9 in WNW 3.2 mph 20.9 mph 91 % 0.0 in
23:42 0.8 °F -0.4 °F 1021.9 in SW 4.8 mph 20.9 mph 92 % 0.0 in
23:47 0.8 °F -0.4 °F 1022.2 in WNW 4.8 mph 19.3 mph 92 % 0.0 in
23:52 0.8 °F -0.4 °F 1022.2 in West 17.7 mph 17.7 mph 92 % 0.0 in
23:57 0.9 °F -0.3 °F 1021.9 in WNW 11.3 mph 19.3 mph 92 % 0.0 in
Meteo18
Compliments of Weather Underground - 4 mb

Script developed by  Jim McMurry - jmcmurry@mwt.net Adapted for the template by  Wim van der Kuil - Leuven-Template.eu

You find our weather info also at:

European Weather Network

Weather Underground

Equipment we use:

Weather-station
Davis Vue

Weather-program
Meteobridge

Weather-server
Raspberry PI 2 B+

Provider
1 and 1

Davis Vue

Meteobridge

Raspberry PI 2 B+

1 and 1